»·PEaware :: N421M KSBP-KSBP

N421M :: KSBP-KSBP

FLIGHT INFORMATION

Flight Status: Arrived
Operator: Privately registered:
United States
More flights under this callsign
Pilot: John P. (24518)
Aircraft: ROBIN DR-400
(DR40)
More flights by this aircraft type
Origin: KSBP San Luis Co Regl
United States
Destination: KSBP San Luis Co Regl
United States
More flights between these airports :: More routes between these airports
Route:
File this flight plan on PilotEdge
Remarks:
Altitude:
(Current/Filed)
1,200ft
Speed:
(Current/Filed)
80kts
Departed: 13-Feb-20 10:03 PM
Arrived: 13-Feb-20 10:24 PM
Distance/Time
Traveled:
0nm/0:21
Distance/Time
To Go:
Arrived

Flight Plot

Page will automatically refresh every two minutes.


Map Options




Map Legend


Flown Route
Filed Route
Departure Airport
Arrival Airport
Navaid (VOR, NDB)
Fix

Horizontal Profiles

Position Reports

Time Latitude Longitude Heading Altitude Ground
Speed
13-Feb-20 21:47 35.238856 -120.638806 179 215ft 0kts
13-Feb-20 21:48 35.238856 -120.638806 179 215ft 0kts
13-Feb-20 21:49 35.238856 -120.638806 179 215ft 0kts
13-Feb-20 21:50 35.238856 -120.638806 179 215ft 0kts
13-Feb-20 21:51 35.238856 -120.638806 179 215ft 0kts
13-Feb-20 21:52 35.238856 -120.638806 179 215ft 0kts
13-Feb-20 21:53 35.238856 -120.638806 179 215ft 0kts
13-Feb-20 21:54 35.238856 -120.638806 179 215ft 0kts
13-Feb-20 21:55 35.238019 -120.638790 181 215ft 2kts
13-Feb-20 21:56 35.237379 -120.638607 164 215ft 0kts
13-Feb-20 21:57 35.236270 -120.637189 129 215ft 6kts
13-Feb-20 21:58 35.234690 -120.634454 126 215ft 12kts
13-Feb-20 21:59 35.233629 -120.632586 126 215ft 5kts
13-Feb-20 22:00 35.233176 -120.632350 209 215ft 0kts
13-Feb-20 22:01 35.232919 -120.632682 252 215ft 3kts
13-Feb-20 22:02 35.238464 -120.643090 304 301ft 82kts
13-Feb-20 22:03 35.249713 -120.665811 254 1030ft 83kts
13-Feb-20 22:04 35.226615 -120.663314 124 1359ft 113kts
13-Feb-20 22:05 35.208400 -120.629860 124 1602ft 114kts
13-Feb-20 22:06 35.225987 -120.621946 303 620ft 122kts
13-Feb-20 22:07 35.242347 -120.650192 304 453ft 91kts
13-Feb-20 22:08 35.242021 -120.674263 204 1002ft 90kts
13-Feb-20 22:09 35.223275 -120.656237 121 1035ft 103kts
13-Feb-20 22:10 35.210611 -120.631121 121 1249ft 83kts
13-Feb-20 22:11 35.221695 -120.612547 321 871ft 88kts
13-Feb-20 22:12 35.235872 -120.638485 304 215ft 75kts
13-Feb-20 22:13 35.247650 -120.663828 305 1020ft 95kts
13-Feb-20 22:14 35.232089 -120.668615 120 1141ft 100kts
13-Feb-20 22:15 35.215579 -120.642350 121 1044ft 85kts
13-Feb-20 22:16 35.209217 -120.616921 29 916ft 91kts
13-Feb-20 22:17 35.227975 -120.625398 307 504ft 96kts
13-Feb-20 22:18 35.242035 -120.650477 301 538ft 90kts
13-Feb-20 22:19 35.241471 -120.676734 203 1196ft 95kts
13-Feb-20 22:20 35.223923 -120.656322 124 946ft 90kts
13-Feb-20 22:21 35.209140 -120.630615 102 1127ft 93kts
13-Feb-20 22:22 35.224424 -120.618235 300 613ft 104kts
13-Feb-20 22:23 35.236744 -120.639803 326 215ft 17kts
13-Feb-20 22:24 35.237523 -120.639906 3 215ft 1kts
13-Feb-20 22:25 35.238741 -120.640843 241 215ft 0kts
13-Feb-20 22:26 35.238741 -120.640843 241 215ft 0kts
13-Feb-20 22:27 35.238741 -120.640843 241 215ft 0kts
13-Feb-20 22:28 35.238741 -120.640843 241 215ft 0kts
13-Feb-20 22:29 35.238741 -120.640843 241 215ft 0kts
13-Feb-20 22:30 35.238741 -120.640843 241 215ft 0kts
13-Feb-20 22:31 35.238741 -120.640843 241 215ft 0kts
13-Feb-20 22:32 35.238741 -120.640843 241 215ft 0kts
13-Feb-20 22:33 35.238741 -120.640843 241 215ft 0kts
13-Feb-20 22:34 35.238741 -120.640843 241 215ft 0kts
13-Feb-20 22:35 35.238741 -120.640843 241 215ft 0kts
13-Feb-20 22:36 35.238741 -120.640843 241 215ft 0kts
13-Feb-20 22:37 35.238741 -120.640843 241 215ft 0kts
13-Feb-20 22:38 35.238741 -120.640843 241 215ft 0kts

Navigation Log

Ident Type
Flight plan parsing failed, navigation log unavailable